createdAt,value
2023-04-21T00:02:06.467Z,14.63
2023-04-21T00:04:33.440Z,14.63
2023-04-21T00:07:04.408Z,15.77
2023-04-21T00:09:30.978Z,15.77
2023-04-21T00:11:59.704Z,15.65
2023-04-21T00:14:28.831Z,15.75
2023-04-21T00:16:55.467Z,15.80
2023-04-21T00:19:24.665Z,16.30
2023-04-21T00:21:51.352Z,16.85
2023-04-21T00:24:18.548Z,16.08
2023-04-21T00:26:45.121Z,17.23
2023-04-21T00:29:13.900Z,17.25
2023-04-21T00:31:43.528Z,16.98
2023-04-21T00:34:12.539Z,17.70
2023-04-21T00:36:39.129Z,19.50
2023-04-21T00:39:06.074Z,18.73
2023-04-21T00:41:35.158Z,18.42
2023-04-21T00:44:08.387Z,19.50
2023-04-21T00:46:35.820Z,19.45
2023-04-21T00:49:07.705Z,19.48
2023-04-21T00:51:37.691Z,19.38
2023-04-21T00:54:09.146Z,20.85
2023-04-21T00:56:36.564Z,19.43
2023-04-21T00:59:05.965Z,19.85
2023-04-21T01:01:34.121Z,19.60
2023-04-21T01:04:01.552Z,18.83
2023-04-21T01:06:36.274Z,18.58
2023-04-21T01:09:04.753Z,18.75
2023-04-21T01:11:32.061Z,19.55
2023-04-21T01:14:02.468Z,20.13
2023-04-21T01:16:29.450Z,18.45
2023-04-21T01:18:56.086Z,17.60
2023-04-21T01:21:23.510Z,18.15
2023-04-21T01:23:50.368Z,19.25
2023-04-21T01:26:19.360Z,18.08
2023-04-21T01:28:47.533Z,18.42
2023-04-21T01:31:16.332Z,18.08
2023-04-21T01:33:43.299Z,19.63
2023-04-21T01:36:11.690Z,19.05
2023-04-21T01:38:45.940Z,19.73
2023-04-21T01:41:12.634Z,18.83
2023-04-21T01:43:39.294Z,20.23
2023-04-21T01:46:08.828Z,20.38
2023-04-21T01:48:37.990Z,20.60
2023-04-21T01:51:06.201Z,19.48
2023-04-21T01:53:32.984Z,21.10
2023-04-21T01:56:01.861Z,21.38
2023-04-21T01:58:32.998Z,20.77
2023-04-21T02:01:02.171Z,22.35
2023-04-21T02:03:28.990Z,21.27
2023-04-21T02:06:03.850Z,20.63
2023-04-21T02:08:30.535Z,21.00
2023-04-21T02:11:00.187Z,21.45
2023-04-21T02:13:28.406Z,20.83
2023-04-21T02:16:05.967Z,21.05
2023-04-21T02:18:39.776Z,20.67
2023-04-21T02:21:08.348Z,21.92
2023-04-21T02:23:35.080Z,21.77
2023-04-21T02:26:03.709Z,22.15
2023-04-21T02:28:32.108Z,21.90
2023-04-21T02:30:58.697Z,22.20
2023-04-21T02:33:25.427Z,22.73
2023-04-21T02:35:52.038Z,23.52
2023-04-21T02:38:18.660Z,21.02
2023-04-21T02:40:45.254Z,23.08
2023-04-21T02:43:14.104Z,21.90
2023-04-21T02:45:40.749Z,20.80
2023-04-21T02:48:07.541Z,22.50
2023-04-21T02:50:34.270Z,22.08
2023-04-21T02:53:01.240Z,21.98
2023-04-21T02:55:30.215Z,22.17
2023-04-21T02:57:56.991Z,21.45
2023-04-21T03:00:24.459Z,22.30
2023-04-21T03:02:53.816Z,21.75
2023-04-21T03:05:21.049Z,21.67
2023-04-21T03:07:47.650Z,21.38
2023-04-21T03:10:16.934Z,22.00
2023-04-21T03:12:43.534Z,22.55
2023-04-21T03:15:13.241Z,22.33
2023-04-21T03:17:43.357Z,21.02
2023-04-21T03:20:12.810Z,20.10
2023-04-21T03:22:39.680Z,21.02
2023-04-21T03:25:07.214Z,20.13
2023-04-21T03:27:34.911Z,18.80
2023-04-21T03:30:01.502Z,17.80
2023-04-21T03:32:32.746Z,17.40
2023-04-21T03:34:59.355Z,17.27
2023-04-21T03:37:26.036Z,17.67
2023-04-21T03:39:54.765Z,16.63
2023-04-21T03:42:21.430Z,14.82
2023-04-21T03:44:49.891Z,13.50
2023-04-21T03:47:17.291Z,13.23
2023-04-21T03:49:43.904Z,13.48
2023-04-21T03:52:15.926Z,14.30
2023-04-21T03:54:44.656Z,15.65
2023-04-21T03:57:11.283Z,17.10
2023-04-21T03:59:37.859Z,16.75
2023-04-21T04:02:07.146Z,16.85
2023-04-21T04:04:38.517Z,17.10
2023-04-21T04:07:08.706Z,18.90
2023-04-21T04:09:35.418Z,17.60
2023-04-21T04:12:03.275Z,18.25
2023-04-21T04:14:30.422Z,17.20
2023-04-21T04:16:59.604Z,17.23
2023-04-21T04:19:33.609Z,15.27
2023-04-21T04:22:01.153Z,14.35
2023-04-21T04:24:28.306Z,15.52
2023-04-21T04:26:54.984Z,14.52
2023-04-21T04:29:22.463Z,15.55
2023-04-21T04:31:50.729Z,15.70
2023-04-21T04:34:17.728Z,14.82
2023-04-21T04:36:44.926Z,16.08
2023-04-21T04:39:12.295Z,15.45
2023-04-21T04:41:39.165Z,13.82
2023-04-21T04:44:06.021Z,15.68
2023-04-21T04:46:32.896Z,15.95
2023-04-21T04:49:01.072Z,15.82
2023-04-21T04:51:27.944Z,16.23
2023-04-21T04:53:54.663Z,17.60
2023-04-21T04:56:21.906Z,17.42
2023-04-21T04:58:48.573Z,16.92
2023-04-21T05:01:16.506Z,16.88
2023-04-21T05:03:44.670Z,16.65
2023-04-21T05:06:11.958Z,17.67
2023-04-21T05:08:40.915Z,18.23
2023-04-21T05:11:08.120Z,17.65
2023-04-21T05:13:34.800Z,18.42
2023-04-21T05:16:04.517Z,18.77
2023-04-21T05:18:31.201Z,20.20
2023-04-21T05:20:58.066Z,18.92
2023-04-21T05:23:24.744Z,18.33
2023-04-21T05:25:51.383Z,19.85
2023-04-21T05:28:18.181Z,20.50
2023-04-21T05:30:44.795Z,19.10
2023-04-21T05:33:11.616Z,20.13
2023-04-21T05:35:38.338Z,18.85
2023-04-21T05:38:05.828Z,19.17
2023-04-21T05:40:32.804Z,20.70
2023-04-21T05:42:59.377Z,20.85
2023-04-21T05:45:26.048Z,21.88
2023-04-21T05:47:52.758Z,21.70
2023-04-21T05:50:19.552Z,21.52
2023-04-21T05:52:49.144Z,21.58
2023-04-21T05:55:15.734Z,21.25
2023-04-21T05:57:42.318Z,21.90
2023-04-21T06:00:12.147Z,21.88
2023-04-21T06:02:40.555Z,21.80
2023-04-21T06:05:07.547Z,21.90
2023-04-21T06:07:37.092Z,22.52
2023-04-21T06:10:07.235Z,22.88
2023-04-21T06:12:33.821Z,23.90
2023-04-21T06:15:00.507Z,23.30
2023-04-21T06:17:27.148Z,23.75
2023-04-21T06:19:53.926Z,23.80
2023-04-21T06:22:20.829Z,22.23
2023-04-21T06:24:47.496Z,21.20
2023-04-21T06:27:14.807Z,22.98
2023-04-21T06:29:42.689Z,23.42
2023-04-21T06:32:12.745Z,22.83
2023-04-21T06:34:39.609Z,23.20
2023-04-21T06:37:06.165Z,22.35
2023-04-21T06:39:32.945Z,24.45
2023-04-21T06:41:59.648Z,24.35
2023-04-21T06:44:26.880Z,24.98
2023-04-21T06:46:53.590Z,24.23
2023-04-21T06:49:20.324Z,23.20
2023-04-21T06:51:47.120Z,23.80
2023-04-21T06:54:16.592Z,24.45
2023-04-21T06:56:43.249Z,24.10
2023-04-21T06:59:10.226Z,23.83
2023-04-21T07:01:36.998Z,24.17
2023-04-21T07:04:06.126Z,23.38
2023-04-21T07:06:32.920Z,24.23
2023-04-21T07:08:59.929Z,24.23
2023-04-21T07:11:28.421Z,24.23
2023-04-21T07:13:55.618Z,24.52
2023-04-21T07:16:22.283Z,22.83
2023-04-21T07:18:49.029Z,21.88
2023-04-21T07:21:15.653Z,20.70
2023-04-21T07:23:42.231Z,20.80
2023-04-21T07:26:08.781Z,19.60
2023-04-21T07:28:35.593Z,19.83
2023-04-21T07:31:03.608Z,19.15
2023-04-21T07:33:31.668Z,18.73
2023-04-21T07:35:58.509Z,19.35
2023-04-21T07:38:25.198Z,19.75
2023-04-21T07:40:51.910Z,18.25
2023-04-21T07:43:19.713Z,18.42
2023-04-21T07:45:46.406Z,18.42
2023-04-21T07:48:13.088Z,18.42
2023-04-21T07:50:39.796Z,17.67
2023-04-21T07:53:08.943Z,17.23
2023-04-21T07:55:37.050Z,17.08
2023-04-21T07:58:04.978Z,15.93
2023-04-21T08:00:31.851Z,17.45
2023-04-21T08:02:58.550Z,18.10
2023-04-21T08:05:33.306Z,17.80
2023-04-21T08:08:01.791Z,17.80
2023-04-21T08:10:28.724Z,17.60
2023-04-21T08:12:55.848Z,18.02
2023-04-21T08:15:23.758Z,18.20
2023-04-21T08:17:50.504Z,18.92
2023-04-21T08:20:17.334Z,18.23
2023-04-21T08:22:45.927Z,18.95
2023-04-21T08:25:13.896Z,18.02
2023-04-21T08:27:43.726Z,18.88
2023-04-21T08:30:10.871Z,19.67
2023-04-21T08:32:37.616Z,19.73
2023-04-21T08:35:04.583Z,18.35
2023-04-21T08:37:31.282Z,18.55
2023-04-21T08:39:57.909Z,16.88
2023-04-21T08:42:24.530Z,18.33
2023-04-21T08:44:51.220Z,17.95
2023-04-21T08:47:20.408Z,17.42
2023-04-21T08:49:49.899Z,17.25
2023-04-21T08:52:17.573Z,17.30
2023-04-21T08:54:44.433Z,17.42
2023-04-21T08:59:40.485Z,16.20
2023-04-21T09:02:12.256Z,16.05
2023-04-21T09:04:41.196Z,17.13
2023-04-21T09:07:16.130Z,16.40
2023-04-21T09:09:52.922Z,14.95
2023-04-21T09:12:19.635Z,15.38
2023-04-21T09:14:46.474Z,14.00
2023-04-21T09:17:16.200Z,14.48
2023-04-21T09:19:45.346Z,14.02
2023-04-21T09:22:17.099Z,15.57
2023-04-21T09:24:56.747Z,14.73
2023-04-21T09:27:23.381Z,14.70
2023-04-21T09:29:49.961Z,14.98
2023-04-21T09:32:20.195Z,15.07
2023-04-21T09:34:47.103Z,15.60
2023-04-21T09:37:18.201Z,16.85
2023-04-21T09:39:57.305Z,15.73
2023-04-21T09:42:33.330Z,16.15
2023-04-21T09:47:35.999Z,15.80
2023-04-21T09:50:05.189Z,16.30
2023-04-21T09:52:35.195Z,15.35
2023-04-21T09:55:05.410Z,13.50
2023-04-21T09:57:34.568Z,14.88
2023-04-21T10:00:08.390Z,14.77
2023-04-21T10:02:36.977Z,14.90
2023-04-21T10:05:06.453Z,13.63
2023-04-21T10:07:33.090Z,13.25
2023-04-21T10:10:00.618Z,11.73
2023-04-21T10:12:27.669Z,12.85
2023-04-21T10:14:55.918Z,12.73
2023-04-21T10:17:24.837Z,13.13
2023-04-21T10:19:58.512Z,11.30
2023-04-21T10:22:33.232Z,11.27
2023-04-21T10:25:02.349Z,11.00
2023-04-21T10:27:37.460Z,9.55
2023-04-21T10:30:23.721Z,8.75
2023-04-21T10:33:03.295Z,9.55
2023-04-21T10:35:58.146Z,8.82
2023-04-21T10:38:42.025Z,9.07
2023-04-21T10:41:29.711Z,8.65
2023-04-21T10:44:11.194Z,8.85
2023-04-21T10:46:44.437Z,8.88
2023-04-21T10:49:41.160Z,8.65
2023-04-21T10:52:09.121Z,8.93
2023-04-21T10:54:43.501Z,8.55
2023-04-21T10:57:11.993Z,7.85
2023-04-21T10:59:39.359Z,8.68
2023-04-21T11:02:12.621Z,7.95
2023-04-21T11:04:41.995Z,7.95
2023-04-21T11:07:10.908Z,8.20
2023-04-21T11:09:39.105Z,7.00
2023-04-21T11:12:07.832Z,7.43
2023-04-21T11:14:36.719Z,7.35
2023-04-21T11:17:04.959Z,7.72
2023-04-21T11:19:34.675Z,8.45
2023-04-21T11:22:01.282Z,7.90
2023-04-21T11:24:27.912Z,8.30
2023-04-21T11:26:54.620Z,8.15
2023-04-21T11:29:21.249Z,9.77
2023-04-21T11:31:49.493Z,8.98
2023-04-21T11:34:20.011Z,8.93
2023-04-21T11:36:47.992Z,8.43
2023-04-21T11:39:21.656Z,8.98
2023-04-21T11:41:50.576Z,8.02
2023-04-21T11:44:38.855Z,9.80
2023-04-21T11:47:12.566Z,9.80
2023-04-21T11:49:47.708Z,11.07
2023-04-21T11:52:35.441Z,8.70
2023-04-21T11:55:11.076Z,10.43
2023-04-21T11:57:40.692Z,11.07
2023-04-21T12:00:13.911Z,12.25
2023-04-21T12:02:40.806Z,11.00
2023-04-21T12:05:10.561Z,10.55
2023-04-21T12:07:39.480Z,11.02
2023-04-21T12:10:14.605Z,10.93
2023-04-21T12:12:42.628Z,10.27
2023-04-21T12:15:11.499Z,9.85
2023-04-21T12:17:45.199Z,8.43
2023-04-21T12:20:12.998Z,8.10
2023-04-21T12:22:39.579Z,8.40
2023-04-21T12:25:06.799Z,10.15
2023-04-21T12:27:33.491Z,9.95
2023-04-21T12:30:00.288Z,8.95
2023-04-21T12:32:27.088Z,8.90
2023-04-21T12:34:53.715Z,8.88
2023-04-21T12:37:20.348Z,9.43
2023-04-21T12:39:46.894Z,8.73
2023-04-21T12:42:15.913Z,9.05
2023-04-21T12:44:42.507Z,7.93
2023-04-21T12:47:09.438Z,8.18
2023-04-21T12:49:36.083Z,9.38
2023-04-21T12:52:05.373Z,10.85
2023-04-21T12:54:32.016Z,10.38
2023-04-21T12:56:58.784Z,10.45
2023-04-21T12:59:26.183Z,10.20
2023-04-21T13:01:52.955Z,9.93
2023-04-21T13:04:19.874Z,9.68
2023-04-21T13:06:46.639Z,9.63
2023-04-21T13:09:13.225Z,9.27
2023-04-21T13:11:42.439Z,7.70
2023-04-21T13:14:09.027Z,7.15
2023-04-21T13:16:35.750Z,7.93
2023-04-21T13:19:02.457Z,7.25
2023-04-21T13:21:29.033Z,7.53
2023-04-21T13:23:57.228Z,7.30
2023-04-21T13:26:24.415Z,6.47
2023-04-21T13:28:53.979Z,6.85
2023-04-21T13:31:20.805Z,6.53
2023-04-21T13:33:47.493Z,6.88
2023-04-21T13:36:14.295Z,7.05
2023-04-21T13:38:41.097Z,6.20
2023-04-21T13:41:08.645Z,6.18
2023-04-21T13:43:36.029Z,6.20
2023-04-21T13:46:02.730Z,5.88
2023-04-21T13:48:29.646Z,5.35
2023-04-21T13:50:56.270Z,5.45
2023-04-21T13:53:22.946Z,5.80
2023-04-21T13:55:49.691Z,4.45
2023-04-21T13:58:20.809Z,4.88
2023-04-21T14:00:47.447Z,4.47
2023-04-21T14:03:24.476Z,4.97
2023-04-21T14:05:51.209Z,4.85
2023-04-21T14:08:21.860Z,4.97
2023-04-21T14:10:48.557Z,4.70
2023-04-21T14:13:33.178Z,4.80
2023-04-21T14:16:06.010Z,4.93
2023-04-21T14:18:35.035Z,5.57
2023-04-21T14:21:04.353Z,6.07
2023-04-21T14:23:30.962Z,5.18
2023-04-21T14:25:57.639Z,5.18
2023-04-21T14:28:24.215Z,5.65
2023-04-21T14:30:50.809Z,6.07
2023-04-21T14:33:17.520Z,5.90
2023-04-21T14:35:44.188Z,6.65
2023-04-21T14:38:11.000Z,5.95
2023-04-21T14:40:37.574Z,6.43
2023-04-21T14:43:04.234Z,5.85
2023-04-21T14:45:31.162Z,5.38
2023-04-21T14:47:58.303Z,5.53
2023-04-21T14:50:24.930Z,5.45
2023-04-21T14:52:51.533Z,5.72
2023-04-21T14:55:21.019Z,6.13
2023-04-21T14:57:47.693Z,5.28
2023-04-21T15:00:16.941Z,5.45
2023-04-21T15:02:48.067Z,5.13
2023-04-21T15:05:15.347Z,5.20
2023-04-21T15:07:42.844Z,5.22
2023-04-21T15:10:10.161Z,4.97
2023-04-21T15:12:40.573Z,4.95
2023-04-21T15:15:07.796Z,5.38
2023-04-21T15:17:34.447Z,5.80
2023-04-21T15:20:01.047Z,6.35
2023-04-21T15:22:27.793Z,5.97
2023-04-21T15:24:54.762Z,5.53
2023-04-21T15:27:21.651Z,6.22
2023-04-21T15:29:48.338Z,6.43
2023-04-21T15:32:14.984Z,5.88
2023-04-21T15:34:41.541Z,6.63
2023-04-21T15:37:08.140Z,5.90
2023-04-21T15:39:35.066Z,5.97
2023-04-21T15:42:04.065Z,5.68
2023-04-21T15:44:31.338Z,5.45
2023-04-21T15:46:57.968Z,5.00
2023-04-21T15:49:26.036Z,5.20
2023-04-21T15:51:53.050Z,5.97
2023-04-21T15:54:19.724Z,5.70
2023-04-21T15:56:46.428Z,5.78
2023-04-21T15:59:13.099Z,5.57
2023-04-21T16:01:39.853Z,5.70
2023-04-21T16:04:14.879Z,5.82
2023-04-21T16:06:41.586Z,5.78
2023-04-21T16:09:08.607Z,5.25
2023-04-21T16:11:35.345Z,6.28
2023-04-21T16:14:02.277Z,5.45
2023-04-21T16:16:29.156Z,5.95
2023-04-21T16:18:55.964Z,2.53
2023-04-21T16:21:22.786Z,2.20
2023-04-21T16:23:49.563Z,1.35
2023-04-21T16:26:16.192Z,1.42
2023-04-21T16:28:42.750Z,1.45
2023-04-21T16:31:09.442Z,1.10
2023-04-21T16:33:36.112Z,1.20
2023-04-21T16:36:03.714Z,0.95
2023-04-21T16:38:30.436Z,1.15
2023-04-21T16:41:00.092Z,0.75
2023-04-21T16:43:26.906Z,1.30
2023-04-21T16:45:53.570Z,0.90
2023-04-21T16:48:21.154Z,1.13
2023-04-21T16:50:47.722Z,1.08
2023-04-21T16:53:14.313Z,1.60
2023-04-21T16:55:40.881Z,2.58
2023-04-21T16:58:07.665Z,2.17
2023-04-21T17:00:35.780Z,4.40
2023-04-21T17:03:02.653Z,3.50
2023-04-21T17:05:29.308Z,4.57
2023-04-21T17:07:56.364Z,3.45
2023-04-21T17:10:23.054Z,1.73
2023-04-21T17:12:49.702Z,1.30
2023-04-21T17:15:16.422Z,1.60
2023-04-21T17:17:44.585Z,1.25
2023-04-21T17:20:15.447Z,1.30
2023-04-21T17:22:51.995Z,1.60
2023-04-21T17:25:20.824Z,1.20
2023-04-21T17:27:50.419Z,0.95
2023-04-21T17:30:25.328Z,2.53
2023-04-21T17:33:04.302Z,1.80
2023-04-21T17:35:48.789Z,1.60
2023-04-21T17:38:35.024Z,1.90
2023-04-21T17:41:06.629Z,2.97
2023-04-21T17:43:34.284Z,2.55
2023-04-21T17:46:01.023Z,1.27
2023-04-21T17:48:27.672Z,1.00
2023-04-21T17:50:55.523Z,1.40
2023-04-21T17:53:22.156Z,1.10
2023-04-21T17:55:51.379Z,1.27
2023-04-21T17:58:18.402Z,1.10
2023-04-21T18:00:47.283Z,0.80
2023-04-21T18:03:13.985Z,1.02
2023-04-21T18:05:41.022Z,0.90
2023-04-21T18:08:07.671Z,0.90
2023-04-21T18:10:38.880Z,1.00
2023-04-21T18:13:07.623Z,1.70
2023-04-21T18:15:34.274Z,1.30
2023-04-21T18:18:03.648Z,1.10
2023-04-21T18:20:30.281Z,1.10
2023-04-21T18:22:56.932Z,1.30
2023-04-21T18:25:40.877Z,1.90
2023-04-21T18:28:08.571Z,1.40
2023-04-21T18:30:38.905Z,2.17
2023-04-21T18:33:09.570Z,1.70
2023-04-21T18:35:36.307Z,1.40
2023-04-21T18:38:04.288Z,1.33
2023-04-21T18:40:32.997Z,1.48
2023-04-21T18:43:00.202Z,1.50
2023-04-21T18:45:27.422Z,1.38
2023-04-21T18:47:59.744Z,1.73
2023-04-21T18:50:29.308Z,1.85
2023-04-21T18:52:58.236Z,1.55
2023-04-21T18:55:30.468Z,1.80
2023-04-21T18:57:59.785Z,1.75
2023-04-21T19:00:26.599Z,1.90
2023-04-21T19:02:53.505Z,2.45
2023-04-21T19:05:20.370Z,2.25
2023-04-21T19:07:47.308Z,1.50
2023-04-21T19:10:13.899Z,1.67
2023-04-21T19:12:41.499Z,1.10
2023-04-21T19:15:11.941Z,1.35
2023-04-21T19:17:40.459Z,1.40
2023-04-21T19:20:10.709Z,1.75
2023-04-21T19:22:37.360Z,1.48
2023-04-21T19:25:08.984Z,1.40
2023-04-21T19:27:38.232Z,1.15
2023-04-21T19:30:07.482Z,1.00
2023-04-21T19:32:34.176Z,1.17
2023-04-21T19:35:01.488Z,1.33
2023-04-21T19:37:28.169Z,0.90
2023-04-21T19:39:57.198Z,0.90
2023-04-21T19:42:23.766Z,1.10
2023-04-21T19:44:52.641Z,0.90
2023-04-21T19:47:19.276Z,1.33
2023-04-21T19:49:46.442Z,2.17
2023-04-21T19:52:22.913Z,1.90
2023-04-21T19:54:51.463Z,1.92
2023-04-21T19:57:19.985Z,1.88
2023-04-21T19:59:46.543Z,1.63
2023-04-21T20:02:15.571Z,1.73
2023-04-21T20:04:46.264Z,1.77
2023-04-21T20:07:15.274Z,1.55
2023-04-21T20:09:41.861Z,1.70
2023-04-21T20:12:09.040Z,3.00
2023-04-21T20:14:35.878Z,3.22
2023-04-21T20:17:02.566Z,2.67
2023-04-21T20:19:31.645Z,2.38
2023-04-21T20:21:58.231Z,1.58
2023-04-21T20:24:29.229Z,1.75
2023-04-21T20:26:56.343Z,1.67
2023-04-21T20:29:23.010Z,1.30
2023-04-21T20:31:51.835Z,1.52
2023-04-21T20:34:22.531Z,1.63
2023-04-21T20:36:54.409Z,1.40
2023-04-21T20:39:21.950Z,1.40
2023-04-21T20:42:11.936Z,1.83
2023-04-21T20:44:45.523Z,2.30
2023-04-21T20:47:12.162Z,1.92
2023-04-21T20:49:44.468Z,2.00
2023-04-21T20:52:13.811Z,1.80
2023-04-21T20:54:43.515Z,1.92
2023-04-21T20:57:11.901Z,2.00
2023-04-21T20:59:39.373Z,1.60
2023-04-21T21:02:07.539Z,1.40
2023-04-21T21:04:36.562Z,1.27
2023-04-21T21:07:03.172Z,1.25
2023-04-21T21:09:31.116Z,1.10
2023-04-21T21:12:02.744Z,1.05
2023-04-21T21:14:34.361Z,1.20
2023-04-21T21:17:03.376Z,0.82
2023-04-21T21:19:32.452Z,1.25
2023-04-21T21:21:59.027Z,1.10
2023-04-21T21:24:26.319Z,1.60
2023-04-21T21:26:56.444Z,2.95
2023-04-21T21:29:26.061Z,3.30
2023-04-21T21:32:00.096Z,2.80
2023-04-21T21:34:29.022Z,1.67
2023-04-21T21:36:55.654Z,1.50
2023-04-21T21:39:22.206Z,1.50
2023-04-21T21:41:52.613Z,0.98
2023-04-21T21:44:23.835Z,1.50
2023-04-21T21:46:52.779Z,1.63
2023-04-21T21:49:26.601Z,2.45
2023-04-21T21:52:02.985Z,1.90
2023-04-21T21:54:34.532Z,1.70
2023-04-21T21:57:05.981Z,1.83
2023-04-21T21:59:35.568Z,2.10
2023-04-21T22:02:05.137Z,1.92
2023-04-21T22:04:33.938Z,1.70
2023-04-21T22:07:02.359Z,1.85
2023-04-21T22:09:28.942Z,1.92
2023-04-21T22:11:59.759Z,2.05
2023-04-21T22:14:28.796Z,2.30
2023-04-21T22:16:57.145Z,1.88
2023-04-21T22:19:25.804Z,1.77
2023-04-21T22:21:55.270Z,2.08
2023-04-21T22:24:21.865Z,2.17
2023-04-21T22:26:51.934Z,2.40
2023-04-21T22:29:23.865Z,2.60
2023-04-21T22:31:50.666Z,2.10
2023-04-21T22:34:25.956Z,1.60
2023-04-21T22:37:02.135Z,1.75
2023-04-21T22:39:31.443Z,1.90
2023-04-21T22:41:58.134Z,1.50
2023-04-21T22:44:27.559Z,1.50
2023-04-21T22:46:56.867Z,1.52
2023-04-21T22:49:23.453Z,1.30
2023-04-21T22:51:50.098Z,1.60
2023-04-21T22:54:21.218Z,1.45
2023-04-21T22:56:50.451Z,1.65
2023-04-21T22:59:21.640Z,1.30
2023-04-21T23:01:53.573Z,1.45
2023-04-21T23:04:22.612Z,1.80
2023-04-21T23:06:53.287Z,2.60
2023-04-21T23:09:23.339Z,1.90
2023-04-21T23:11:54.549Z,1.90
2023-04-21T23:14:23.046Z,1.88
2023-04-21T23:16:52.192Z,1.85
2023-04-21T23:19:20.918Z,1.42
2023-04-21T23:21:48.805Z,1.73
2023-04-21T23:24:15.477Z,1.48
2023-04-21T23:26:42.058Z,1.48
2023-04-21T23:29:08.671Z,1.73
2023-04-21T23:31:37.718Z,1.55
2023-04-21T23:34:06.720Z,1.60
2023-04-21T23:36:38.882Z,1.42
2023-04-21T23:39:07.789Z,1.88
2023-04-21T23:41:34.430Z,1.70
2023-04-21T23:44:03.163Z,2.03
2023-04-21T23:46:29.827Z,1.70
2023-04-21T23:48:58.722Z,1.65
2023-04-21T23:51:28.095Z,1.58
2023-04-21T23:53:54.775Z,1.75
2023-04-21T23:56:30.233Z,1.70
2023-04-21T23:58:59.356Z,1.48
